Time;durP1;ratioP1;P1;durP2;ratioP2;P2;SDS_P1;SDS_P2;PMS_P1;PMS_P2;Temp;Humidity;BMP_temperature;BMP_pressure;BME280_temperature;BME280_humidity;BME280_pressure;Samples;Min_cycle;Max_cycle;Signal;HPM_P1;HPM_P2
2023/07/30 00:01:44;;;;;;;31.67;7.57;;;17.90;99.90;;;;;;5064130;28;20114;-85
2023/07/30 00:04:10;;;;;;;33.42;7.93;;;17.90;99.90;;;;;;5064457;28;20032;-85
2023/07/30 00:06:36;;;;;;;33.05;8.38;;;17.90;99.90;;;;;;5080723;28;20038;-85
2023/07/30 00:09:02;;;;;;;27.38;7.75;;;17.80;99.90;;;;;;5080245;28;20430;-85
2023/07/30 00:11:28;;;;;;;23.20;7.60;;;17.80;99.90;;;;;;5080766;28;20036;-85
2023/07/30 00:13:54;;;;;;;27.48;7.47;;;17.80;99.90;;;;;;5080855;28;20024;-84
2023/07/30 00:16:20;;;;;;;32.13;9.73;;;17.80;99.90;;;;;;5080925;28;20020;-85
2023/07/30 00:18:46;;;;;;;34.95;8.70;;;17.80;99.90;;;;;;5063762;28;20059;-85
2023/07/30 00:21:11;;;;;;;35.55;9.30;;;17.80;99.90;;;;;;5080879;28;20482;-84
2023/07/30 00:23:37;;;;;;;31.00;8.30;;;17.70;99.90;;;;;;5079742;28;20411;-84
2023/07/30 00:26:03;;;;;;;30.13;9.07;;;17.70;99.90;;;;;;5064115;28;20032;-84
2023/07/30 00:28:29;;;;;;;27.70;7.97;;;17.70;99.90;;;;;;5047272;28;20234;-85
2023/07/30 00:30:55;;;;;;;24.27;7.97;;;17.70;99.90;;;;;;5063739;28;20040;-85
2023/07/30 00:33:21;;;;;;;33.22;8.75;;;17.70;99.90;;;;;;5080317;28;20059;-84
2023/07/30 00:35:47;;;;;;;31.50;8.70;;;17.60;99.90;;;;;;5063690;28;20415;-85
2023/07/30 00:38:14;;;;;;;23.77;8.10;;;17.60;99.90;;;;;;5096595;28;20028;-85
2023/07/30 00:40:41;;;;;;;26.45;7.85;;;17.60;99.90;;;;;;5080178;28;20032;-84
2023/07/30 00:43:07;;;;;;;31.77;7.80;;;17.60;99.90;;;;;;5097073;28;20102;-85
2023/07/30 00:45:34;;;;;;;26.88;7.57;;;17.60;99.90;;;;;;5063522;28;20036;-85
2023/07/30 00:48:00;;;;;;;25.63;8.05;;;17.60;99.90;;;;;;5046799;28;20335;-84
2023/07/30 00:50:26;;;;;;;25.58;7.18;;;17.60;99.90;;;;;;5080017;28;20331;-85
2023/07/30 00:52:52;;;;;;;36.63;8.00;;;17.60;99.90;;;;;;5063010;28;20047;-84
2023/07/30 00:55:18;;;;;;;31.40;8.02;;;17.60;99.90;;;;;;5063618;28;20032;-84
2023/07/30 00:57:46;;;;;;;30.05;7.53;;;17.60;99.90;;;;;;5079730;28;20028;-84
2023/07/30 01:00:12;;;;;;;27.20;7.50;;;17.60;99.90;;;;;;5063619;28;20036;-84
2023/07/30 01:02:38;;;;;;;34.78;8.77;;;17.60;99.90;;;;;;5079484;28;20428;-85
2023/07/30 01:05:04;;;;;;;30.58;7.78;;;17.60;99.90;;;;;;5063773;28;20043;-84
2023/07/30 01:07:31;;;;;;;29.15;8.35;;;17.60;99.90;;;;;;5078850;28;20051;-85
2023/07/30 01:09:58;;;;;;;30.02;7.88;;;17.60;99.90;;;;;;5063012;28;20075;-85
2023/07/30 01:12:25;;;;;;;30.23;8.45;;;17.60;99.90;;;;;;5079584;28;20025;-85
2023/07/30 01:14:52;;;;;;;34.63;7.88;;;17.60;99.90;;;;;;5079586;28;20028;-84
2023/07/30 01:17:18;;;;;;;28.92;7.70;;;17.70;99.90;;;;;;5079495;28;20028;-84
2023/07/30 01:19:44;;;;;;;26.15;7.13;;;17.60;99.90;;;;;;5062819;28;20036;-85
2023/07/30 01:22:10;;;;;;;32.97;8.27;;;17.60;99.90;;;;;;5078865;28;20423;-84
2023/07/30 01:24:36;;;;;;;34.95;9.13;;;17.70;99.90;;;;;;5063080;28;20036;-84
2023/07/30 01:27:06;;;;;;;31.20;7.95;;;17.70;99.90;;;;;;5079273;28;20040;-85
2023/07/30 01:29:41;;;;;;;29.98;8.20;;;17.70;99.90;;;;;;5079399;28;20063;-85
2023/07/30 01:32:10;;;;;;;29.88;7.43;;;17.70;99.90;;;;;;5096232;28;20032;-85
2023/07/30 01:34:38;;;;;;;29.77;7.30;;;17.70;99.90;;;;;;5062537;28;20407;-84
2023/07/30 01:37:11;;;;;;;35.95;7.75;;;17.70;99.90;;;;;;5078846;28;20119;-85
2023/07/30 01:39:39;;;;;;;32.20;7.38;;;17.70;99.90;;;;;;5079242;28;20036;-85
2023/07/30 01:42:05;;;;;;;25.45;7.07;;;17.70;99.90;;;;;;5095942;28;20491;-85
2023/07/30 01:44:31;;;;;;;35.47;7.53;;;17.70;99.90;;;;;;5062972;28;20032;-86
2023/07/30 01:46:58;;;;;;;30.58;7.95;;;17.70;99.90;;;;;;5078617;28;20068;-85
2023/07/30 01:49:24;;;;;;;25.38;7.13;;;17.70;99.90;;;;;;5062304;28;20039;-85
2023/07/30 01:51:50;;;;;;;30.63;6.68;;;17.70;99.90;;;;;;5077813;28;20028;-85
2023/07/30 01:54:15;;;;;;;33.78;7.28;;;17.70;99.90;;;;;;5062612;28;20040;-84
2023/07/30 01:56:41;;;;;;;27.05;7.65;;;17.70;99.90;;;;;;5062063;28;20039;-85
2023/07/30 01:59:07;;;;;;;25.30;6.88;;;17.70;99.90;;;;;;5062466;28;20036;-84
2023/07/30 02:01:33;;;;;;;28.90;7.28;;;17.70;99.90;;;;;;5062084;28;20043;-86
2023/07/30 02:03:59;;;;;;;28.33;6.70;;;17.60;99.90;;;;;;5062181;28;20056;-85
2023/07/30 02:06:25;;;;;;;30.17;7.70;;;17.60;99.90;;;;;;5062338;28;20062;-85
2023/07/30 02:08:51;;;;;;;31.20;6.90;;;17.60;99.90;;;;;;5060931;28;20436;-85
2023/07/30 02:11:17;;;;;;;27.25;7.18;;;17.60;99.90;;;;;;5062490;28;20128;-85
2023/07/30 02:13:43;;;;;;;28.58;6.95;;;17.60;99.90;;;;;;5078332;28;20055;-84
2023/07/30 02:16:09;;;;;;;29.40;7.38;;;17.60;99.90;;;;;;5062081;28;20035;-84
2023/07/30 02:18:35;;;;;;;29.73;6.93;;;17.60;99.90;;;;;;5061136;28;20089;-85
2023/07/30 02:21:01;;;;;;;29.77;6.85;;;17.60;99.90;;;;;;5078617;28;20032;-85
2023/07/30 02:23:28;;;;;;;33.97;7.03;;;17.60;99.90;;;;;;5077727;28;20043;-85
2023/07/30 02:25:54;;;;;;;33.28;8.05;;;17.60;99.90;;;;;;5045145;28;20430;-85
2023/07/30 02:28:20;;;;;;;28.10;6.93;;;17.60;99.90;;;;;;5045105;28;20123;-84
2023/07/30 02:30:46;;;;;;;29.23;7.13;;;17.60;99.90;;;;;;5078066;28;20115;-85
2023/07/30 02:33:12;;;;;;;29.15;7.00;;;17.50;99.90;;;;;;5061477;28;20472;-84
2023/07/30 02:35:37;;;;;;;31.98;7.32;;;17.50;99.90;;;;;;5061393;28;20070;-85
2023/07/30 02:38:03;;;;;;;27.65;7.10;;;17.50;99.90;;;;;;5094561;28;20050;-85
2023/07/30 02:40:30;;;;;;;30.83;7.15;;;17.50;99.90;;;;;;5078199;28;20325;-85
2023/07/30 02:42:56;;;;;;;28.60;6.43;;;17.50;99.90;;;;;;5094480;28;20032;-84
2023/07/30 02:45:22;;;;;;;22.98;5.80;;;17.50;99.90;;;;;;5061554;28;20043;-84
2023/07/30 02:47:48;;;;;;;27.35;6.05;;;17.50;99.90;;;;;;5047090;28;20366;-85
2023/07/30 02:50:14;;;;;;;29.23;6.22;;;17.50;99.90;;;;;;5074669;28;20029;-85
2023/07/30 02:52:40;;;;;;;27.52;5.90;;;17.50;99.90;;;;;;5040216;28;20033;-85
2023/07/30 02:55:06;;;;;;;30.83;6.25;;;17.50;99.90;;;;;;5058030;28;20049;-85
2023/07/30 02:57:32;;;;;;;27.05;5.63;;;17.50;99.90;;;;;;5041306;28;20056;-84
2023/07/30 02:59:58;;;;;;;30.17;5.82;;;17.50;99.90;;;;;;5058117;28;20065;-85
2023/07/30 03:02:24;;;;;;;22.80;5.20;;;17.50;99.90;;;;;;5041410;28;20040;-85
2023/07/30 03:04:50;;;;;;;22.50;5.00;;;17.40;99.90;;;;;;5041459;28;20066;-85
2023/07/30 03:07:17;;;;;;;21.23;5.82;;;17.40;99.90;;;;;;5057061;28;20063;-84
2023/07/30 03:09:43;;;;;;;22.30;4.78;;;17.40;99.90;;;;;;5057416;28;20463;-85
2023/07/30 03:12:09;;;;;;;21.77;4.90;;;17.40;99.90;;;;;;5024749;28;20033;-84
2023/07/30 03:14:35;;;;;;;17.95;4.82;;;17.40;99.90;;;;;;5057879;28;20432;-85
2023/07/30 03:17:01;;;;;;;18.25;4.10;;;17.40;99.90;;;;;;5057336;28;20048;-84
2023/07/30 03:19:27;;;;;;;18.50;4.63;;;17.40;99.90;;;;;;5074341;28;20082;-84
2023/07/30 03:21:53;;;;;;;17.98;4.32;;;17.40;99.90;;;;;;5040345;28;20420;-85
2023/07/30 03:24:18;;;;;;;25.65;4.22;;;17.30;99.90;;;;;;5074285;28;20036;-84
2023/07/30 03:26:44;;;;;;;15.93;4.35;;;17.30;99.90;;;;;;5040649;28;20040;-84
2023/07/30 03:29:10;;;;;;;13.50;3.65;;;17.30;99.90;;;;;;5074230;28;20074;-84
2023/07/30 03:31:36;;;;;;;20.00;3.58;;;17.30;99.90;;;;;;5059255;28;20048;-85
2023/07/30 03:34:02;;;;;;;14.13;3.47;;;17.30;99.90;;;;;;5061086;28;20045;-85
2023/07/30 03:36:28;;;;;;;17.40;3.47;;;17.30;99.90;;;;;;5028738;28;20122;-84
2023/07/30 03:38:54;;;;;;;22.85;3.97;;;17.30;99.90;;;;;;5076890;28;20320;-85
2023/07/30 03:41:21;;;;;;;14.45;3.05;;;17.30;99.90;;;;;;5044842;28;20103;-84
2023/07/30 03:43:48;;;;;;;13.70;2.58;;;17.30;99.90;;;;;;5044336;28;20032;-85
2023/07/30 03:46:13;;;;;;;17.08;3.75;;;17.20;99.90;;;;;;5062098;28;20064;-85
2023/07/30 03:48:39;;;;;;;14.43;2.83;;;17.20;99.90;;;;;;5064696;28;20028;-84
2023/07/30 03:51:07;;;;;;;14.48;2.95;;;17.20;99.90;;;;;;5064151;28;20088;-84
2023/07/30 03:53:33;;;;;;;12.45;2.38;;;17.20;99.90;;;;;;5080394;28;20035;-84
2023/07/30 03:55:59;;;;;;;11.60;2.30;;;17.20;99.90;;;;;;5047815;28;20032;-85
2023/07/30 03:58:26;;;;;;;9.50;2.33;;;17.20;99.90;;;;;;5064429;28;20315;-84
2023/07/30 04:00:52;;;;;;;14.60;2.80;;;17.20;99.90;;;;;;5064251;28;20031;-85
2023/07/30 04:03:17;;;;;;;12.35;2.20;;;17.20;99.90;;;;;;5064370;28;20036;-84
2023/07/30 04:05:43;;;;;;;11.30;2.45;;;17.10;99.90;;;;;;5064605;28;20036;-84
2023/07/30 04:08:09;;;;;;;12.35;2.45;;;17.10;99.90;;;;;;5080130;28;20423;-84
2023/07/30 04:10:35;;;;;;;11.00;2.50;;;17.20;99.90;;;;;;5047354;28;20056;-84
2023/07/30 04:13:01;;;;;;;13.68;2.55;;;17.10;99.90;;;;;;5080493;28;20432;-84
2023/07/30 04:15:27;;;;;;;12.23;2.33;;;17.20;99.90;;;;;;5080908;28;20040;-84
2023/07/30 04:17:54;;;;;;;9.80;2.67;;;17.20;99.90;;;;;;5047082;28;20032;-85
2023/07/30 04:20:19;;;;;;;13.45;2.88;;;17.20;99.90;;;;;;5080836;28;20335;-85
2023/07/30 04:22:45;;;;;;;16.17;3.05;;;17.20;99.90;;;;;;5046733;28;20050;-86
2023/07/30 04:25:11;;;;;;;15.85;3.00;;;17.20;99.90;;;;;;5081203;28;20041;-84
2023/07/30 04:27:38;;;;;;;16.67;3.20;;;17.20;99.90;;;;;;5080342;28;20063;-84
2023/07/30 04:30:07;;;;;;;14.80;2.90;;;17.20;99.90;;;;;;5063644;28;20032;-85
2023/07/30 04:32:33;;;;;;;14.43;2.70;;;17.20;99.90;;;;;;5047634;28;20097;-84
2023/07/30 04:35:00;;;;;;;17.88;2.95;;;17.20;99.90;;;;;;5063668;28;20423;-85
2023/07/30 04:37:27;;;;;;;13.85;2.78;;;17.20;99.90;;;;;;5063050;28;20089;-84
2023/07/30 04:39:53;;;;;;;10.27;2.22;;;17.20;99.90;;;;;;5063919;28;20034;-84
2023/07/30 04:42:20;;;;;;;15.18;3.00;;;17.20;99.90;;;;;;5097524;28;20028;-84
2023/07/30 04:44:47;;;;;;;15.23;3.17;;;17.20;99.90;;;;;;5063946;28;20038;-84
2023/07/30 04:47:15;;;;;;;16.77;3.05;;;17.20;99.90;;;;;;5047657;28;20039;-84
2023/07/30 04:49:42;;;;;;;10.77;2.72;;;17.20;99.90;;;;;;5080155;28;20126;-84
2023/07/30 04:52:08;;;;;;;16.77;2.97;;;17.20;99.90;;;;;;5062681;28;20032;-85
2023/07/30 04:54:38;;;;;;;13.32;2.80;;;17.20;99.90;;;;;;5063435;28;20339;-85
2023/07/30 04:57:05;;;;;;;13.07;2.83;;;17.20;99.90;;;;;;5063558;28;20063;-85
2023/07/30 04:59:33;;;;;;;12.00;2.70;;;17.20;99.90;;;;;;5079987;28;20035;-85
2023/07/30 05:02:00;;;;;;;12.98;2.72;;;17.20;99.90;;;;;;5063293;28;20040;-85
2023/07/30 05:04:26;;;;;;;14.48;2.97;;;17.20;99.90;;;;;;5096876;28;20081;-85
2023/07/30 05:06:52;;;;;;;12.30;3.33;;;17.20;99.90;;;;;;5062365;28;20044;-86
2023/07/30 05:09:18;;;;;;;11.00;2.78;;;17.20;99.90;;;;;;5079606;28;20047;-85
2023/07/30 05:11:43;;;;;;;16.00;3.00;;;17.20;99.90;;;;;;5079671;28;20032;-86
2023/07/30 05:14:09;;;;;;;16.73;2.97;;;17.20;99.90;;;;;;5079583;28;20024;-85
2023/07/30 05:16:36;;;;;;;14.20;2.78;;;17.20;99.90;;;;;;5079788;28;20036;-85
2023/07/30 05:19:02;;;;;;;16.65;2.97;;;17.20;99.90;;;;;;5062910;28;20064;-85
2023/07/30 05:21:28;;;;;;;15.18;3.42;;;17.20;99.90;;;;;;5096592;28;20029;-85
2023/07/30 05:23:54;;;;;;;13.57;2.90;;;17.20;99.90;;;;;;5061960;28;20032;-85
2023/07/30 05:26:20;;;;;;;13.23;2.90;;;17.20;99.90;;;;;;5046477;28;20028;-84
2023/07/30 05:28:45;;;;;;;15.25;2.90;;;17.20;99.90;;;;;;5062683;28;20086;-85
2023/07/30 05:31:11;;;;;;;14.35;3.22;;;17.20;99.90;;;;;;5062599;28;20039;-85
2023/07/30 05:33:37;;;;;;;17.90;3.33;;;17.30;99.90;;;;;;5046036;28;20024;-84
2023/07/30 05:36:03;;;;;;;12.43;2.85;;;17.30;99.90;;;;;;5062705;28;20036;-85
2023/07/30 05:38:29;;;;;;;15.20;2.65;;;17.30;99.90;;;;;;5078858;28;20034;-85
2023/07/30 05:40:55;;;;;;;13.48;3.10;;;17.30;99.90;;;;;;5078960;28;20334;-86
2023/07/30 05:43:21;;;;;;;15.57;2.80;;;17.30;99.90;;;;;;5079359;28;20082;-84
2023/07/30 05:45:47;;;;;;;16.35;3.28;;;17.30;99.90;;;;;;5062322;28;20032;-85
2023/07/30 05:48:13;;;;;;;16.40;2.97;;;17.30;99.90;;;;;;5072531;28;20044;-84
2023/07/30 05:50:39;;;;;;;11.98;2.90;;;17.30;99.90;;;;;;5042262;28;20349;-84
2023/07/30 05:53:07;;;;;;;13.77;3.15;;;17.30;99.90;;;;;;5025832;28;20063;-85
2023/07/30 05:55:33;;;;;;;18.65;2.97;;;17.40;99.90;;;;;;5041890;28;20068;-84
2023/07/30 05:57:59;;;;;;;11.95;2.58;;;17.30;99.90;;;;;;5042015;28;20083;-85
2023/07/30 06:00:25;;;;;;;17.98;3.40;;;17.40;99.90;;;;;;5042428;28;20169;-84
2023/07/30 06:02:51;;;;;;;14.18;3.25;;;17.40;99.90;;;;;;5058540;28;20312;-84
2023/07/30 06:05:17;;;;;;;13.98;2.80;;;17.40;99.90;;;;;;5058560;28;20043;-84
2023/07/30 06:07:43;;;;;;;11.00;2.60;;;17.40;99.90;;;;;;5057935;28;20109;-84
2023/07/30 06:10:09;;;;;;;15.15;2.97;;;17.40;99.90;;;;;;5058073;28;20101;-84
2023/07/30 06:12:35;;;;;;;18.27;3.45;;;17.40;99.90;;;;;;5058527;28;20135;-84
2023/07/30 06:15:01;;;;;;;18.73;3.40;;;17.40;99.90;;;;;;5025355;28;20494;-85
2023/07/30 06:17:27;;;;;;;14.52;3.00;;;17.40;99.90;;;;;;5074868;28;20021;-84
2023/07/30 06:19:53;;;;;;;14.38;3.28;;;17.40;99.90;;;;;;5041936;28;20064;-84
2023/07/30 06:22:19;;;;;;;14.38;2.92;;;17.40;99.90;;;;;;5048534;28;20041;-84
2023/07/30 06:24:45;;;;;;;16.33;3.88;;;17.50;99.90;;;;;;5058496;28;20051;-85
2023/07/30 06:27:12;;;;;;;18.20;3.40;;;17.50;99.90;;;;;;5041447;28;20390;-84
2023/07/30 06:29:38;;;;;;;14.45;3.25;;;17.60;99.90;;;;;;5058097;28;20331;-86
2023/07/30 06:32:04;;;;;;;13.35;3.45;;;17.60;99.90;;;;;;5060988;28;20028;-84
2023/07/30 06:34:30;;;;;;;17.77;3.47;;;17.70;99.90;;;;;;5061573;28;20063;-84
2023/07/30 06:36:56;;;;;;;15.13;2.88;;;17.70;99.90;;;;;;5060718;28;20056;-85
2023/07/30 06:39:22;;;;;;;18.90;3.10;;;17.80;99.90;;;;;;5074996;28;20085;-85
2023/07/30 06:41:48;;;;;;;13.43;2.70;;;17.80;99.90;;;;;;5052957;28;20033;-87
2023/07/30 06:44:15;;;;;;;14.70;2.90;;;17.80;99.90;;;;;;5073777;28;20113;-86
2023/07/30 06:46:41;;;;;;;14.43;3.10;;;17.90;99.90;;;;;;5065552;28;20459;-88
2023/07/30 06:49:07;;;;;;;14.73;2.70;;;17.90;99.90;;;;;;5056802;28;20039;-85
2023/07/30 06:51:33;;;;;;;17.33;2.95;;;18.00;99.90;;;;;;5041602;28;20099;-86
2023/07/30 06:53:59;;;;;;;16.65;3.47;;;18.00;99.90;;;;;;5041055;28;20049;-85
2023/07/30 06:56:25;;;;;;;16.83;2.90;;;18.00;99.90;;;;;;5058940;28;20112;-86
2023/07/30 06:58:51;;;;;;;15.60;3.47;;;18.00;99.90;;;;;;5055730;28;20483;-85
2023/07/30 07:01:19;;;;;;;14.95;2.78;;;18.00;99.90;;;;;;5058522;28;20152;-85
2023/07/30 07:03:46;;;;;;;16.00;3.53;;;18.10;99.90;;;;;;5044042;28;20409;-85
2023/07/30 07:06:12;;;;;;;14.45;2.88;;;18.10;99.90;;;;;;5077334;28;20134;-86
2023/07/30 07:08:38;;;;;;;16.67;3.75;;;18.20;99.90;;;;;;5058610;28;20119;-85
2023/07/30 07:11:04;;;;;;;11.32;2.75;;;18.30;99.90;;;;;;5059944;28;20312;-86
2023/07/30 07:13:30;;;;;;;14.70;2.83;;;18.40;99.90;;;;;;5059146;28;20037;-85
2023/07/30 07:15:56;;;;;;;14.02;2.80;;;18.40;99.90;;;;;;5055446;28;20036;-85
2023/07/30 07:18:21;;;;;;;15.23;3.30;;;18.40;99.90;;;;;;5038737;28;20039;-85
2023/07/30 07:20:47;;;;;;;16.73;3.33;;;18.30;99.90;;;;;;5038783;28;20113;-86
2023/07/30 07:23:13;;;;;;;15.77;3.00;;;18.30;99.90;;;;;;5037462;28;20036;-86
2023/07/30 07:25:40;;;;;;;12.90;2.97;;;18.30;99.90;;;;;;5055044;28;20036;-85
2023/07/30 07:28:06;;;;;;;15.85;3.20;;;18.30;99.90;;;;;;5054948;28;20051;-85
2023/07/30 07:30:35;;;;;;;16.05;2.63;;;18.30;99.90;;;;;;5038643;28;20074;-85
2023/07/30 07:33:00;;;;;;;16.70;3.38;;;18.30;99.90;;;;;;5071525;28;20029;-85
2023/07/30 07:35:26;;;;;;;15.20;3.13;;;18.30;99.90;;;;;;5038464;28;20029;-85
2023/07/30 07:37:52;;;;;;;16.65;2.90;;;18.30;99.90;;;;;;5070576;28;20036;-85
2023/07/30 07:40:18;;;;;;;16.67;3.53;;;18.30;99.90;;;;;;5069667;28;20432;-85
2023/07/30 07:42:44;;;;;;;15.75;3.05;;;18.30;99.90;;;;;;5054878;28;20316;-85
2023/07/30 07:45:10;;;;;;;12.40;2.83;;;18.30;99.90;;;;;;5038371;28;20047;-86
2023/07/30 07:47:36;;;;;;;16.52;3.30;;;18.40;99.90;;;;;;5071520;28;20060;-86
2023/07/30 07:50:02;;;;;;;16.08;2.90;;;18.40;99.90;;;;;;5058818;28;20043;-85
2023/07/30 07:52:28;;;;;;;15.27;2.97;;;18.40;99.90;;;;;;5033204;28;20036;-86
2023/07/30 07:54:54;;;;;;;13.23;2.70;;;18.40;99.90;;;;;;5056526;28;20532;-86
2023/07/30 07:57:20;;;;;;;17.23;2.78;;;18.50;99.90;;;;;;5039598;28;20033;-86
2023/07/30 07:59:46;;;;;;;20.38;3.17;;;18.50;99.90;;;;;;5060567;28;20038;-87
2023/07/30 08:02:13;;;;;;;17.10;2.78;;;18.50;99.90;;;;;;5076681;28;20119;-87
2023/07/30 08:04:39;;;;;;;17.92;3.38;;;18.50;99.90;;;;;;5077652;28;20038;-86
2023/07/30 08:07:07;;;;;;;15.38;3.17;;;18.50;99.90;;;;;;5060212;28;20040;-87
2023/07/30 08:09:33;;;;;;;15.00;3.60;;;18.50;99.90;;;;;;5076806;28;20167;-87
2023/07/30 08:12:00;;;;;;;16.60;3.30;;;18.50;99.90;;;;;;5027633;28;20067;-87
2023/07/30 08:14:26;;;;;;;14.15;3.13;;;18.40;99.90;;;;;;5077036;28;20036;-87
2023/07/30 08:16:53;;;;;;;18.60;3.40;;;18.40;99.90;;;;;;5061399;28;20036;-86
2023/07/30 08:19:19;;;;;;;17.77;3.42;;;18.40;99.90;;;;;;5063856;28;20423;-86
2023/07/30 08:21:47;;;;;;;13.95;3.47;;;18.40;99.90;;;;;;5097099;28;20165;-87
2023/07/30 08:24:13;;;;;;;16.17;2.97;;;18.40;99.90;;;;;;5080912;28;20036;-86
2023/07/30 08:26:39;;;;;;;13.27;2.83;;;18.40;99.90;;;;;;5097620;28;20073;-86
2023/07/30 08:29:06;;;;;;;14.32;2.88;;;18.30;99.90;;;;;;5080593;28;20367;-86
2023/07/30 08:31:34;;;;;;;11.77;2.65;;;18.30;99.90;;;;;;5048927;28;20059;-87
2023/07/30 08:34:00;;;;;;;12.98;2.60;;;18.10;99.90;;;;;;5047586;28;20333;-87
2023/07/30 08:36:26;;;;;;;12.52;3.08;;;18.00;99.90;;;;;;5047528;28;20062;-87
2023/07/30 08:38:54;;;;;;;10.90;2.50;;;17.80;99.90;;;;;;5047965;28;20064;-87
2023/07/30 08:41:23;;;;;;;16.15;3.13;;;17.70;99.90;;;;;;5097699;28;20187;-87
2023/07/30 08:43:52;;;;;;;12.98;2.80;;;17.60;99.90;;;;;;5061268;28;20123;-90
2023/07/30 08:46:18;;;;;;;14.18;2.53;;;17.60;99.90;;;;;;5074021;28;20036;-88
2023/07/30 08:48:45;;;;;;;10.57;2.60;;;17.60;99.90;;;;;;5063838;28;20035;-87
2023/07/30 08:51:14;;;;;;;12.57;2.72;;;17.60;99.90;;;;;;5079913;28;20331;-86
2023/07/30 08:53:42;;;;;;;10.73;2.65;;;17.70;99.90;;;;;;5062633;28;20444;-86
2023/07/30 08:56:10;;;;;;;8.70;2.08;;;17.80;99.90;;;;;;5097064;28;20028;-86
2023/07/30 08:58:39;;;;;;;7.75;2.10;;;17.90;99.90;;;;;;5079560;28;20024;-87
2023/07/30 09:01:12;;;;;;;14.90;2.80;;;17.90;99.90;;;;;;5079981;28;20460;-86
2023/07/30 09:03:40;;;;;;;10.43;2.25;;;18.00;99.90;;;;;;5045846;28;20032;-86
2023/07/30 09:06:16;;;;;;;16.58;3.53;;;18.00;99.90;;;;;;5089677;28;20035;-88
2023/07/30 09:08:46;;;;;;;14.77;3.03;;;18.00;99.90;;;;;;5076120;28;20039;-87
2023/07/30 09:11:12;;;;;;;14.27;2.58;;;18.00;99.90;;;;;;5043424;28;20128;-87
2023/07/30 09:13:40;;;;;;;13.35;3.00;;;18.00;99.90;;;;;;5062373;28;20044;-86
2023/07/30 09:16:13;;;;;;;10.70;2.22;;;18.00;99.90;;;;;;5079748;28;20032;-86
2023/07/30 09:18:43;;;;;;;17.98;3.17;;;18.10;99.90;;;;;;5079694;28;20036;-85
2023/07/30 09:21:13;;;;;;;13.60;2.95;;;18.10;99.90;;;;;;5096704;28;20032;-85
2023/07/30 09:23:44;;;;;;;13.85;2.95;;;18.20;99.90;;;;;;5078572;28;20097;-85
2023/07/30 09:26:10;;;;;;;11.70;3.33;;;18.20;99.90;;;;;;5096741;28;20055;-86
2023/07/30 09:28:37;;;;;;;12.75;3.03;;;18.30;99.90;;;;;;5079307;28;20067;-86
2023/07/30 09:31:08;;;;;;;14.88;4.05;;;18.40;99.90;;;;;;5079536;28;20062;-85
2023/07/30 09:33:42;;;;;;;14.77;3.90;;;18.60;99.90;;;;;;5062617;28;20036;-86
2023/07/30 09:36:09;;;;;;;14.18;3.47;;;18.80;99.90;;;;;;5079509;28;20127;-86
2023/07/30 09:38:39;;;;;;;13.15;2.45;;;19.00;99.90;;;;;;5095223;28;20103;-85
2023/07/30 09:41:05;;;;;;;11.25;2.42;;;19.00;99.90;;;;;;5080087;28;20078;-85
2023/07/30 09:43:35;;;;;;;9.32;2.08;;;18.90;99.90;;;;;;5095721;28;20327;-85
2023/07/30 09:46:03;;;;;;;11.80;2.38;;;19.00;99.90;;;;;;5079673;28;20369;-86
2023/07/30 09:48:33;;;;;;;12.40;2.08;;;19.00;99.90;;;;;;5075401;28;20028;-86
2023/07/30 09:51:02;;;;;;;14.10;2.70;;;19.10;99.90;;;;;;5076823;28;20068;-86
2023/07/30 09:53:30;;;;;;;13.10;2.35;;;19.10;99.90;;;;;;5058167;28;20078;-86
2023/07/30 09:55:56;;;;;;;13.77;3.13;;;19.10;99.90;;;;;;5075759;28;20146;-86
2023/07/30 09:58:22;;;;;;;15.55;2.80;;;19.00;99.90;;;;;;5058891;28;20041;-87
2023/07/30 10:00:52;;;;;;;13.90;2.78;;;18.90;99.90;;;;;;5075665;28;20382;-87
2023/07/30 10:03:19;;;;;;;13.52;2.53;;;18.80;99.90;;;;;;5042410;28;20378;-87
2023/07/30 10:05:46;;;;;;;11.95;2.20;;;18.90;99.90;;;;;;5058866;28;20105;-87
2023/07/30 10:08:21;;;;;;;14.98;2.40;;;18.90;99.90;;;;;;5058850;28;20066;-87
2023/07/30 10:10:50;;;;;;;11.43;2.25;;;18.90;99.90;;;;;;5058697;28;20097;-87
2023/07/30 10:13:18;;;;;;;12.30;2.65;;;19.00;99.90;;;;;;5058709;28;20033;-86
2023/07/30 10:15:45;;;;;;;13.63;2.60;;;19.00;99.90;;;;;;5042020;28;20032;-87
2023/07/30 10:18:11;;;;;;;10.07;2.53;;;19.20;99.90;;;;;;5058863;28;20123;-86
2023/07/30 10:20:39;;;;;;;12.00;2.65;;;19.30;99.90;;;;;;5075209;28;20082;-86
2023/07/30 10:23:05;;;;;;;11.70;2.83;;;19.30;99.90;;;;;;5074459;28;20100;-86
2023/07/30 10:25:47;;;;;;;14.65;3.10;;;19.30;99.90;;;;;;5058382;28;20040;-86
2023/07/30 10:28:33;;;;;;;12.35;2.33;;;19.30;99.90;;;;;;5074876;28;20036;-86
2023/07/30 10:31:01;;;;;;;14.05;3.03;;;19.30;99.90;;;;;;5058224;28;20089;-86
2023/07/30 10:33:43;;;;;;;10.52;2.70;;;19.30;99.90;;;;;;5058282;28;20032;-86
2023/07/30 10:36:10;;;;;;;13.45;2.67;;;19.40;99.90;;;;;;5058205;28;20028;-85
2023/07/30 10:38:36;;;;;;;11.15;2.45;;;19.40;99.90;;;;;;5057833;28;20032;-86
2023/07/30 10:41:02;;;;;;;14.13;2.88;;;19.50;99.90;;;;;;5074640;28;20086;-85
2023/07/30 10:43:30;;;;;;;13.70;2.70;;;19.60;99.90;;;;;;5074547;28;20032;-86
2023/07/30 10:45:56;;;;;;;9.30;2.08;;;19.70;99.90;;;;;;5041579;28;20052;-85
2023/07/30 10:48:32;;;;;;;13.20;2.53;;;19.90;99.90;;;;;;5076320;28;20028;-86
2023/07/30 10:50:57;;;;;;;;;;;20.00;99.90;;;;;;5061770;28;20465;-86
2023/07/30 10:53:23;;;;;;;9.98;2.42;;;20.20;99.90;;;;;;5094473;28;19915;-86
2023/07/30 10:55:49;;;;;;;10.82;2.42;;;20.30;99.90;;;;;;5094832;28;20326;-86
2023/07/30 10:58:16;;;;;;;12.82;2.80;;;20.40;99.90;;;;;;5061397;28;20040;-86
2023/07/30 11:00:42;;;;;;;13.45;2.70;;;20.60;99.90;;;;;;5061281;28;20036;-86
2023/07/30 11:03:08;;;;;;;9.93;2.53;;;20.70;99.90;;;;;;5061318;28;20043;-86
2023/07/30 11:05:34;;;;;;;15.15;2.78;;;20.60;99.90;;;;;;5077875;28;20039;-86
2023/07/30 11:08:00;;;;;;;10.60;2.95;;;20.60;99.90;;;;;;5060734;28;20036;-86
2023/07/30 11:10:30;;;;;;;15.23;3.00;;;20.60;99.90;;;;;;5062787;28;20078;-86
2023/07/30 11:12:57;;;;;;;11.57;2.50;;;20.50;99.90;;;;;;5060628;28;20028;-86
2023/07/30 11:15:24;;;;;;;11.93;2.33;;;20.60;99.90;;;;;;5077734;28;20035;-86
2023/07/30 11:17:53;;;;;;;10.95;2.65;;;20.50;99.90;;;;;;5060849;28;20364;-86
2023/07/30 11:20:29;;;;;;;12.30;2.20;;;20.50;99.90;;;;;;5095679;28;20054;-86
2023/07/30 11:22:55;;;;;;;13.68;2.72;;;20.40;99.90;;;;;;5061448;28;20132;-86
2023/07/30 11:25:21;;;;;;;10.55;2.85;;;20.30;99.90;;;;;;5060927;28;20067;-86
2023/07/30 11:27:48;;;;;;;10.55;2.33;;;20.20;99.90;;;;;;5061080;28;20060;-86
2023/07/30 11:30:14;;;;;;;11.48;2.00;;;20.20;99.90;;;;;;5077601;28;20028;-86
2023/07/30 11:32:44;;;;;;;9.13;2.03;;;20.10;99.90;;;;;;5077289;28;20373;-86
2023/07/30 11:35:12;;;;;;;13.60;2.75;;;20.20;99.90;;;;;;5061333;28;20123;-86
2023/07/30 11:37:42;;;;;;;10.50;2.40;;;20.30;99.90;;;;;;5077093;28;20090;-86
2023/07/30 11:40:09;;;;;;;9.80;2.35;;;20.40;99.90;;;;;;5078218;28;20032;-86
2023/07/30 11:42:40;;;;;;;13.43;2.65;;;20.40;99.90;;;;;;5077410;28;20342;-87
2023/07/30 11:45:19;;;;;;;13.00;2.20;;;20.40;99.90;;;;;;5077934;28;20040;-86
2023/07/30 11:47:44;;;;;;;12.02;2.40;;;20.40;99.90;;;;;;5057191;28;20028;-86
2023/07/30 11:50:10;;;;;;;12.13;2.40;;;20.50;99.90;;;;;;5074252;28;20044;-86
2023/07/30 11:52:51;;;;;;;14.75;2.80;;;20.60;99.90;;;;;;5058345;28;20336;-87
2023/07/30 11:55:19;;;;;;;11.35;2.10;;;20.70;99.90;;;;;;5061368;28;20561;-86
2023/07/30 11:57:46;;;;;;;11.45;2.45;;;20.80;99.90;;;;;;5061381;28;20224;-87
2023/07/30 12:00:12;;;;;;;9.57;2.50;;;20.80;99.90;;;;;;5077837;28;20127;-85
2023/07/30 12:02:38;;;;;;;7.68;2.15;;;20.80;99.90;;;;;;5061029;28;20041;-86
2023/07/30 12:05:05;;;;;;;10.90;2.40;;;20.80;99.90;;;;;;5061456;28;20048;-85
2023/07/30 12:07:32;;;;;;;9.48;2.17;;;20.70;99.90;;;;;;5077289;28;20028;-86
2023/07/30 12:10:09;;;;;;;11.52;2.10;;;20.60;99.90;;;;;;5077350;28;20052;-86
2023/07/30 12:12:35;;;;;;;13.70;2.63;;;20.50;99.90;;;;;;5060845;28;20074;-86
2023/07/30 12:15:01;;;;;;;11.02;1.92;;;20.50;99.90;;;;;;5077235;28;20060;-86
2023/07/30 12:17:28;;;;;;;12.40;2.20;;;20.60;99.90;;;;;;5060894;28;20364;-86
2023/07/30 12:19:53;;;;;;;9.98;2.30;;;20.60;99.90;;;;;;5077581;28;20037;-86
2023/07/30 12:22:19;;;;;;;9.52;2.10;;;20.60;99.90;;;;;;5060250;28;20036;-85
2023/07/30 12:24:45;;;;;;;9.32;2.08;;;20.60;99.90;;;;;;5060931;28;20032;-86
2023/07/30 12:27:11;;;;;;;8.68;1.90;;;20.60;99.90;;;;;;5077418;28;20435;-86
2023/07/30 12:29:37;;;;;;;10.35;2.13;;;20.60;99.90;;;;;;5077248;28;20029;-86
2023/07/30 12:32:03;;;;;;;12.75;2.67;;;20.60;99.90;;;;;;5076896;28;20029;-86
2023/07/30 12:34:29;;;;;;;8.23;1.83;;;20.50;99.90;;;;;;5060613;28;20040;-86
2023/07/30 12:36:56;;;;;;;7.82;1.92;;;20.40;99.90;;;;;;5059544;28;20035;-86